Silver Dolphin — VC9170 — position and weather

sailwx.info

Track history (hours):
 
Tides and Currents Weather Stations Pressure Air Temp Water Temp Dewpoint Dewpoint Depression Visibility Wind Speed Wind Dir Waves Ship Positions

Silver Dolphin

Last reported at 2017-Oct-18 04:06 UTC. Time now 2017-Oct-18 15:10 UTC.
Position N 50°20' W 125°28'.

Length 26 m.

Type: Ship. MMSI: 316012880.

Date/timePositionNaut miles runAvg speedWind from/ knotsBaromVisibWave heightAir tempDewpointWater temp
2017-Oct-18 04:06N 50°20' W 125°28'110.2
2017-Oct-18 03:58N 50°20' W 125°26'510.6
2017-Oct-18 03:29N 50°16' W 125°23'511.2
2017-Oct-18 03:01N 50°10' W 125°22'1 1.5
2017-Oct-18 02:30N 50°10' W 125°22'0 0.0
2017-Oct-18 02:00N 50°10' W 125°22'0 0.0
2017-Oct-18 01:30N 50°10' W 125°22'0 0.0
2017-Oct-18 01:00N 50°10' W 125°22'0 0.0
2017-Oct-18 00:30N 50°10' W 125°22'0 0.0
2017-Oct-18 00:00N 50°10' W 125°22'0 0.0
2017-Oct-17 23:30N 50°10' W 125°22'0 0.0
2017-Oct-17 23:00N 50°10' W 125°22'0 0.0
2017-Oct-17 22:30N 50°10' W 125°22'0 0.0
2017-Oct-17 22:00N 50°10' W 125°22'0 0.0
2017-Oct-17 21:30N 50°10' W 125°22'0 0.0
2017-Oct-17 21:00N 50°10' W 125°22'0 0.0
2017-Oct-17 20:30N 50°10' W 125°22'0 0.1
2017-Oct-17 20:00N 50°10' W 125°22'0 0.1
2017-Oct-17 19:30N 50°10' W 125°22'0 0.0
2017-Oct-17 19:00N 50°10' W 125°22'0 0.0
2017-Oct-17 18:30N 50°10' W 125°22'0 0.0
2017-Oct-17 18:00N 50°10' W 125°22'0 0.0
2017-Oct-17 17:30N 50°10' W 125°22'0 0.0
2017-Oct-17 17:00N 50°10' W 125°22'0 0.0
2017-Oct-17 16:30N 50°10' W 125°22'0 0.0
2017-Oct-17 16:00N 50°10' W 125°22'0 0.0
2017-Oct-17 15:30N 50°10' W 125°22'0 0.1
2017-Oct-17 15:00N 50°10' W 125°22'0 0.1
2017-Oct-17 14:30N 50°10' W 125°22'0 0.0
2017-Oct-17 13:30N 50°10' W 125°22'0 0.0
2017-Oct-17 13:00N 50°10' W 125°22'0 0.0
2017-Oct-17 12:30N 50°10' W 125°22'0 0.0
2017-Oct-17 12:00N 50°10' W 125°22'0 0.0
2017-Oct-17 11:30N 50°10' W 125°22'0 0.0
2017-Oct-17 11:00N 50°10' W 125°22'0 0.0
2017-Oct-17 10:30N 50°10' W 125°22'0 0.0
2017-Oct-17 10:00N 50°10' W 125°22'0 0.0
2017-Oct-17 09:30N 50°10' W 125°22'0 0.0
2017-Oct-17 09:00N 50°10' W 125°22'0 0.0
2017-Oct-17 08:30N 50°10' W 125°22'0 0.0
2017-Oct-17 08:00N 50°10' W 125°22'0 0.0
2017-Oct-17 07:30N 50°10' W 125°22'3 6.2
2017-Oct-17 07:00N 50°13' W 125°23'4 9.0
2017-Oct-17 06:30N 50°17' W 125°25'6 8.0
2017-Oct-17 05:43N 50°21' W 125°32'36 7.1
2017-Oct-17 00:36N 50°30' W 126°28'1 6.9
2017-Oct-17 00:30N 50°30' W 126°29'4 7.0
2017-Oct-16 23:54N 50°30' W 126°35'3 7.1
2017-Oct-16 23:28N 50°32' W 126°40'3 6.3
2017-Oct-16 22:57N 50°35' W 126°42'5 0.5
2017-Oct-16 13:00N 50°38' W 126°36'5 8.0
2017-Oct-16 12:18N 50°38' W 126°44'3 8.9
2017-Oct-16 11:57N 50°35' W 126°42'510.3
2017-Oct-16 11:30N 50°31' W 126°38'36 9.4
2017-Oct-16 07:39N 50°22' W 125°43'6 8.3
2017-Oct-16 06:52N 50°22' W 125°33'4 7.6
2017-Oct-16 06:23N 50°20' W 125°27'3 7.7
2017-Oct-16 06:00N 50°18' W 125°25'5 9.1
2017-Oct-16 05:30N 50°14' W 125°23'4 7.6
2017-Oct-16 05:00N 50°10' W 125°22'0 0.0
2017-Oct-16 04:30N 50°10' W 125°22'0 0.0
2017-Oct-16 04:00N 50°10' W 125°22'0 0.0
2017-Oct-16 03:31N 50°10' W 125°22'0 0.0
2017-Oct-16 03:00N 50°10' W 125°22'0 0.0
2017-Oct-16 02:30N 50°10' W 125°22'0 0.0
2017-Oct-16 02:00N 50°10' W 125°22'0 0.0
2017-Oct-16 01:30N 50°10' W 125°22'0 0.0
2017-Oct-16 01:00N 50°10' W 125°22'0 0.0
2017-Oct-16 00:30N 50°10' W 125°22'0 0.0
2017-Oct-16 00:00N 50°10' W 125°22'0 0.0
2017-Oct-15 23:30N 50°10' W 125°22'0 0.0
2017-Oct-15 23:00N 50°10' W 125°22'0 0.0
2017-Oct-15 22:30N 50°10' W 125°22'0 0.0
2017-Oct-15 22:00N 50°10' W 125°22'0 0.0
2017-Oct-15 21:30N 50°10' W 125°22'0 0.0
2017-Oct-15 21:00N 50°10' W 125°22'0 0.0
2017-Oct-15 20:30N 50°10' W 125°22'0 0.0
2017-Oct-15 20:00N 50°10' W 125°22'0 0.0
2017-Oct-15 19:30N 50°10' W 125°22'0 0.0
2017-Oct-15 19:00N 50°10' W 125°22'0 0.0
2017-Oct-15 18:30N 50°10' W 125°22'0 0.0
2017-Oct-15 18:00N 50°10' W 125°22'0 0.1
2017-Oct-15 17:30N 50°10' W 125°22'0 0.1
2017-Oct-15 17:00N 50°10' W 125°22'0 0.0
2017-Oct-15 16:30N 50°10' W 125°22'0 0.0
2017-Oct-15 16:00N 50°10' W 125°22'0 0.0
2017-Oct-15 15:30N 50°10' W 125°22'0 0.0
2017-Oct-15 15:00N 50°10' W 125°22'0 0.0
2017-Oct-15 14:00N 50°10' W 125°22'0 0.1
2017-Oct-15 13:30N 50°10' W 125°22'0 0.0
2017-Oct-15 13:00N 50°10' W 125°22'0 0.0
2017-Oct-15 12:30N 50°10' W 125°22'0 0.0
2017-Oct-15 12:00N 50°10' W 125°22'0 0.0
2017-Oct-15 11:30N 50°10' W 125°22'0 0.0
2017-Oct-15 11:00N 50°10' W 125°22'0 0.0
2017-Oct-15 10:30N 50°10' W 125°22'0 0.0
2017-Oct-15 10:00N 50°10' W 125°22'3 5.5
2017-Oct-15 09:30N 50°13' W 125°23'4 8.4
2017-Oct-15 08:59N 50°17' W 125°24'7 7.8
2017-Oct-15 08:03N 50°22' W 125°33'39 8.3
2017-Oct-15 03:19N 50°30' W 126°33'3 7.1
2017-Oct-15 02:52N 50°31' W 126°38'2 6.9
2017-Oct-15 02:30N 50°32' W 126°41'4 7.3
2017-Oct-15 02:00N 50°36' W 126°43'47 2.4
2017-Oct-14 06:33N 50°22' W 125°33'1 7.7
2017-Oct-14 06:27N 50°21' W 125°32'4 8.1
2017-Oct-14 06:00N 50°20' W 125°27'4 8.6
2017-Oct-14 05:30N 50°16' W 125°24'5 9.0
2017-Oct-14 05:00N 50°12' W 125°22'4 7.7
2017-Oct-14 04:30N 50°08' W 125°21'3 6.2
2017-Oct-14 04:00N 50°06' W 125°18'4 8.1
2017-Oct-14 03:30N 50°03' W 125°14'1 1.1
2017-Oct-14 03:00N 50°02' W 125°15'0 0.1
2017-Oct-14 02:30N 50°02' W 125°15'0 0.0
2017-Oct-14 01:59N 50°02' W 125°15'0 0.1
2017-Oct-14 01:22N 50°02' W 125°15'0 0.0
2017-Oct-13 23:34N 50°02' W 125°15'0 0.6
2017-Oct-13 23:30N 50°02' W 125°15'0 0.0
2017-Oct-13 23:00N 50°02' W 125°15'0 0.1
2017-Oct-13 22:30N 50°02' W 125°15'0 0.0
2017-Oct-13 22:00N 50°02' W 125°15'0 0.1
2017-Oct-13 21:30N 50°02' W 125°15'0 0.0
2017-Oct-13 21:00N 50°02' W 125°15'0 0.0
2017-Oct-13 20:30N 50°02' W 125°15'0 0.0
2017-Oct-13 20:00N 50°02' W 125°15'0 0.1
2017-Oct-13 19:30N 50°02' W 125°15'0 0.1
2017-Oct-13 18:59N 50°02' W 125°15'0 0.0
2017-Oct-13 18:30N 50°02' W 125°15'0 0.0
2017-Oct-13 17:59N 50°02' W 125°15'0 0.1
2017-Oct-13 17:30N 50°02' W 125°15'0 0.1
2017-Oct-13 17:00N 50°02' W 125°15'0 0.0
2017-Oct-13 15:39N 50°02' W 125°15'0 0.0
2017-Oct-13 15:28N 50°02' W 125°15'0 0.0
2017-Oct-13 15:00N 50°02' W 125°15'0 0.0
2017-Oct-13 14:30N 50°02' W 125°15'0 0.0
2017-Oct-13 13:59N 50°02' W 125°15'0 0.0
2017-Oct-13 13:30N 50°02' W 125°15'0 0.0
2017-Oct-13 13:00N 50°02' W 125°15'0 0.0
2017-Oct-13 12:28N 50°02' W 125°15'0 0.0
2017-Oct-13 12:00N 50°02' W 125°15'0 0.0
2017-Oct-13 11:29N 50°02' W 125°15'0 0.0
2017-Oct-13 11:00N 50°02' W 125°15'0 0.0
2017-Oct-13 10:30N 50°02' W 125°15'0 0.0
2017-Oct-13 10:00N 50°02' W 125°15'0 0.0
2017-Oct-13 09:30N 50°02' W 125°15'0 0.0
2017-Oct-13 09:00N 50°02' W 125°15'0 0.0
2017-Oct-13 08:30N 50°02' W 125°15'0 0.0
2017-Oct-13 08:00N 50°02' W 125°15'0 0.0
2017-Oct-13 07:30N 50°02' W 125°15'0 0.0
2017-Oct-13 07:00N 50°02' W 125°15'0 0.0
2017-Oct-13 06:30N 50°02' W 125°15'0 0.0
2017-Oct-13 06:00N 50°02' W 125°15'0 0.0
2017-Oct-13 05:30N 50°02' W 125°15'0 0.1
2017-Oct-13 05:00N 50°02' W 125°15'0 0.1
2017-Oct-13 04:30N 50°02' W 125°15'0 0.0
2017-Oct-13 04:00N 50°02' W 125°15'0 0.0
2017-Oct-13 03:30N 50°02' W 125°15'0 0.0
2017-Oct-13 03:00N 50°02' W 125°15'0 0.0
2017-Oct-13 02:30N 50°02' W 125°15'0 0.0
2017-Oct-13 02:00N 50°02' W 125°15'0 0.0
2017-Oct-13 01:30N 50°02' W 125°15'0 0.0
2017-Oct-13 01:00N 50°02' W 125°15'0 0.0
2017-Oct-13 00:30N 50°02' W 125°15'0 0.0
2017-Oct-13 00:00N 50°02' W 125°15'0 0.0
2017-Oct-12 23:30N 50°02' W 125°15'0 0.0
2017-Oct-12 23:00N 50°02' W 125°15'0 0.0
2017-Oct-12 22:30N 50°02' W 125°15'0 0.0
2017-Oct-12 21:59N 50°02' W 125°15'0 0.0
2017-Oct-12 21:30N 50°02' W 125°15'0 0.0
2017-Oct-12 20:59N 50°02' W 125°15'0 0.0
2017-Oct-12 20:30N 50°02' W 125°15'0 0.0
2017-Oct-12 20:00N 50°02' W 125°15'0 0.0
2017-Oct-12 19:30N 50°02' W 125°15'0 0.0
2017-Oct-12 19:00N 50°02' W 125°15'3 6.9
2017-Oct-12 18:30N 50°05' W 125°17'510.2
2017-Oct-12 18:00N 50°09' W 125°22'1 1.2
2017-Oct-12 17:30N 50°10' W 125°22'0 0.0
2017-Oct-12 17:00N 50°10' W 125°22'0 0.1
2017-Oct-12 16:30N 50°10' W 125°22'0 0.1
2017-Oct-12 16:00N 50°10' W 125°22'0 0.1
2017-Oct-12 15:30N 50°10' W 125°22'0 0.0
2017-Oct-12 15:00N 50°10' W 125°22'0 0.1
2017-Oct-12 14:30N 50°10' W 125°22'0 0.0
2017-Oct-12 14:00N 50°10' W 125°22'0 0.0
2017-Oct-12 13:30N 50°10' W 125°22'0 0.0
2017-Oct-12 13:00N 50°10' W 125°22'0 0.0
2017-Oct-12 12:30N 50°10' W 125°22'0 0.0
2017-Oct-12 12:00N 50°10' W 125°22'0 0.0
2017-Oct-12 11:30N 50°10' W 125°22'0 0.0
2017-Oct-12 11:00N 50°10' W 125°22'0 0.0
2017-Oct-12 10:30N 50°10' W 125°22'0 0.0
2017-Oct-12 10:00N 50°10' W 125°22'0 0.0
2017-Oct-12 09:30N 50°10' W 125°22'0 0.0
2017-Oct-12 09:00N 50°10' W 125°22'2 3.4
2017-Oct-12 08:30N 50°11' W 125°22'4 7.3
2017-Oct-12 08:00N 50°15' W 125°24'4 7.3
2017-Oct-12 07:30N 50°18' W 125°25'4 6.2
2017-Oct-12 06:48N 50°21' W 125°31'34 7.9
2017-Oct-12 02:33N 50°30' W 126°22'0 9.8
2017-Oct-12 02:30N 50°30' W 126°22'4 8.7
2017-Oct-12 02:00N 50°30' W 126°29'6 8.4
2017-Oct-12 01:20N 50°31' W 126°38'3 8.3
2017-Oct-12 00:59N 50°33' W 126°41'9 5.2
2017-Oct-11 23:16N 50°38' W 126°29'2 8.8
2017-Oct-11 23:00N 50°38' W 126°25'58 2.5
2017-Oct-11 00:00N 50°02' W 125°15'0 0.0
2017-Oct-10 23:30N 50°02' W 125°15'0 0.0
2017-Oct-10 23:00N 50°02' W 125°15'0 0.0
2017-Oct-10 22:30N 50°02' W 125°15'0 0.0
2017-Oct-10 22:00N 50°02' W 125°15'0 0.0
2017-Oct-10 21:29N 50°02' W 125°15'0 0.0
2017-Oct-10 21:00N 50°02' W 125°15'0 0.0
2017-Oct-10 20:30N 50°02' W 125°15'0 0.0
2017-Oct-10 19:59N 50°02' W 125°15'0 0.0
2017-Oct-10 19:28N 50°02' W 125°15'0 0.0
2017-Oct-10 18:55N 50°02' W 125°15'0 0.0
2017-Oct-10 18:30N 50°02' W 125°15'0 0.0
2017-Oct-10 18:00N 50°02' W 125°15'0 0.0
2017-Oct-10 17:30N 50°02' W 125°15'0 0.0
2017-Oct-10 17:00N 50°02' W 125°15'0 0.0
2017-Oct-10 16:30N 50°02' W 125°15'0 0.1
2017-Oct-10 16:00N 50°02' W 125°15'0 0.0
2017-Oct-10 15:30N 50°02' W 125°15'0 0.0
2017-Oct-10 15:00N 50°02' W 125°15'0 0.0
2017-Oct-10 14:00N 50°02' W 125°15'0 0.0
2017-Oct-10 13:30N 50°02' W 125°15'0 0.0
2017-Oct-10 13:00N 50°02' W 125°15'0 0.0
2017-Oct-10 12:30N 50°02' W 125°15'0 0.0
2017-Oct-10 12:00N 50°02' W 125°15'0 0.0
2017-Oct-10 11:30N 50°02' W 125°15'0 0.0
2017-Oct-10 11:00N 50°02' W 125°15'0 0.0
2017-Oct-10 10:30N 50°02' W 125°15'0 0.0
2017-Oct-10 10:00N 50°02' W 125°15'0 0.0
2017-Oct-10 09:30N 50°02' W 125°15'0 0.0
2017-Oct-10 09:00N 50°02' W 125°15'0 0.0
2017-Oct-10 08:29N 50°02' W 125°15'0 0.0
2017-Oct-10 08:00N 50°02' W 125°15'0 0.0
2017-Oct-10 07:30N 50°02' W 125°15'0 0.0
2017-Oct-10 07:00N 50°02' W 125°15'0 0.0
2017-Oct-10 06:29N 50°02' W 125°15'0 0.0
2017-Oct-10 05:06N 50°02' W 125°15'0 0.0
2017-Oct-10 05:00N 50°02' W 125°15'0 0.0
2017-Oct-10 04:30N 50°02' W 125°15'0 0.0
2017-Oct-10 04:00N 50°02' W 125°15'0 0.0
2017-Oct-10 03:30N 50°02' W 125°15'0 0.0
2017-Oct-10 03:00N 50°02' W 125°15'0 0.0
2017-Oct-10 02:30N 50°02' W 125°15'0 0.0
2017-Oct-10 02:00N 50°02' W 125°15'0 0.0
2017-Oct-10 01:30N 50°02' W 125°15'0 0.0
2017-Oct-10 01:00N 50°02' W 125°15'0 0.0
2017-Oct-10 00:30N 50°02' W 125°15'0 0.0
2017-Oct-10 00:00N 50°02' W 125°15'0 0.0
2017-Oct-09 23:30N 50°02' W 125°15'0 0.0
2017-Oct-09 23:00N 50°02' W 125°15'0 0.0
2017-Oct-09 22:30N 50°02' W 125°15'0 0.0
2017-Oct-09 22:00N 50°02' W 125°15'0 0.0
2017-Oct-09 21:30N 50°02' W 125°15'0 0.0
2017-Oct-09 21:00N 50°02' W 125°15'0 0.0
2017-Oct-09 20:30N 50°02' W 125°15'0 0.0
2017-Oct-09 20:00N 50°02' W 125°15'0 0.0
2017-Oct-09 19:30N 50°02' W 125°15'0 0.0
2017-Oct-09 19:00N 50°02' W 125°15'0 0.0
2017-Oct-09 18:30N 50°02' W 125°15'0 0.0
2017-Oct-09 18:00N 50°02' W 125°15'0 0.0
2017-Oct-09 17:30N 50°02' W 125°15'0 0.0
2017-Oct-09 17:00N 50°02' W 125°15'0 0.0
2017-Oct-09 16:30N 50°02' W 125°15'0 0.0
2017-Oct-09 16:00N 50°02' W 125°15'0 0.0
2017-Oct-09 15:30N 50°02' W 125°15'0 0.0
2017-Oct-09 15:00N 50°02' W 125°15'0 0.0
2017-Oct-09 14:30N 50°02' W 125°15'0 0.0
2017-Oct-09 14:00N 50°02' W 125°15'0 0.0
2017-Oct-09 13:30N 50°02' W 125°15'0 0.0
2017-Oct-09 13:00N 50°02' W 125°15'0 0.0
2017-Oct-09 12:30N 50°02' W 125°15'0 0.0
2017-Oct-09 12:00N 50°02' W 125°15'0 0.0
2017-Oct-09 11:30N 50°02' W 125°15'0 0.0
2017-Oct-09 11:00N 50°02' W 125°15'0 0.0
2017-Oct-09 10:30N 50°02' W 125°15'0 0.0
2017-Oct-09 10:00N 50°02' W 125°15'0 0.0
2017-Oct-09 09:30N 50°02' W 125°15'0 0.0
2017-Oct-09 09:00N 50°02' W 125°15'0 0.0
2017-Oct-09 08:30N 50°02' W 125°15'0 0.0
2017-Oct-09 08:00N 50°02' W 125°15'0 0.0
2017-Oct-09 07:30N 50°02' W 125°15'0 0.0
2017-Oct-09 07:00N 50°02' W 125°15'0 0.0
2017-Oct-09 06:30N 50°02' W 125°15'0 0.0
2017-Oct-09 06:00N 50°02' W 125°15'0 0.0
2017-Oct-09 05:30N 50°02' W 125°15'0 0.0
2017-Oct-09 05:00N 50°02' W 125°15'0 0.0
2017-Oct-09 04:30N 50°02' W 125°15'0 0.0
2017-Oct-09 04:00N 50°02' W 125°15'0 0.0
2017-Oct-09 03:30N 50°02' W 125°15'0 0.0
2017-Oct-09 03:00N 50°02' W 125°15'0 0.0
2017-Oct-09 02:30N 50°02' W 125°15'0 0.0
2017-Oct-09 02:00N 50°02' W 125°15'0 0.0
2017-Oct-09 01:30N 50°02' W 125°15'0 0.0
2017-Oct-09 01:00N 50°02' W 125°15'0 0.0
2017-Oct-09 00:30N 50°02' W 125°15'0 0.0
2017-Oct-09 00:00N 50°02' W 125°15'0 0.0
2017-Oct-08 23:30N 50°02' W 125°15'0 0.0
2017-Oct-08 23:00N 50°02' W 125°15'0 0.0
2017-Oct-08 22:30N 50°02' W 125°15'0 0.0
2017-Oct-08 22:00N 50°02' W 125°15'0 0.0
2017-Oct-08 21:25N 50°02' W 125°15'0 0.0
2017-Oct-08 21:00N 50°02' W 125°15'3 5.5
2017-Oct-08 20:30N 50°05' W 125°16'4 8.7
2017-Oct-08 20:00N 50°08' W 125°21'2 4.2
2017-Oct-08 19:30N 50°10' W 125°22'0 0.0
2017-Oct-08 19:00N 50°10' W 125°22'0 0.0
2017-Oct-08 18:30N 50°10' W 125°22'0 0.1
2017-Oct-08 18:00N 50°10' W 125°22'0 0.1
2017-Oct-08 17:30N 50°10' W 125°22'0 0.0
2017-Oct-08 17:00N 50°10' W 125°22'0 0.1
2017-Oct-08 16:30N 50°10' W 125°22'0 0.0
2017-Oct-08 16:00N 50°10' W 125°22'0 0.1
2017-Oct-08 15:30N 50°10' W 125°22'0 0.0
2017-Oct-08 15:00N 50°10' W 125°22'0 0.0
2017-Oct-08 14:30N 50°10' W 125°22'0 0.0
2017-Oct-08 14:00N 50°10' W 125°22'0 0.0
2017-Oct-08 13:30N 50°10' W 125°22'0 0.0
2017-Oct-08 13:00N 50°10' W 125°22'0 0.0
2017-Oct-08 12:30N 50°10' W 125°22'0 0.0
2017-Oct-08 12:00N 50°10' W 125°22'0 0.0
2017-Oct-08 11:30N 50°10' W 125°22'0 0.0
2017-Oct-08 11:00N 50°10' W 125°22'0 0.0
2017-Oct-08 10:30N 50°10' W 125°22'0 0.0
2017-Oct-08 10:00N 50°10' W 125°22'0 0.0
2017-Oct-08 09:30N 50°10' W 125°22'0 0.7
2017-Oct-08 09:00N 50°10' W 125°22'4 8.6
2017-Oct-08 08:30N 50°14' W 125°23'5 8.5
2017-Oct-08 07:58N 50°18' W 125°25'5 7.2
2017-Oct-08 07:18N 50°21' W 125°32'  
Track history (hours):
 
Tides and Currents Weather Stations Pressure Air Temp Water Temp Dewpoint Dewpoint Depression Visibility Wind Speed Wind Dir Waves Ship Positions

Silver Dolphin

Last reported at 2017-Oct-18 04:06 UTC. Time now 2017-Oct-18 15:10 UTC.
Position N 50°20' W 125°28'.

Length 26 m.

Type: Ship. MMSI: 316012880.

Date/timePositionNaut miles runAvg speedWind from/ knotsBaromVisibWave heightAir tempDewpointWater temp
2017-Oct-18 04:06N 50°20' W 125°28'110.2
2017-Oct-18 03:58N 50°20' W 125°26'510.6
2017-Oct-18 03:29N 50°16' W 125°23'511.2
2017-Oct-18 03:01N 50°10' W 125°22'1 1.5
2017-Oct-18 02:30N 50°10' W 125°22'0 0.0
2017-Oct-18 02:00N 50°10' W 125°22'0 0.0
2017-Oct-18 01:30N 50°10' W 125°22'0 0.0
2017-Oct-18 01:00N 50°10' W 125°22'0 0.0
2017-Oct-18 00:30N 50°10' W 125°22'0 0.0
2017-Oct-18 00:00N 50°10' W 125°22'0 0.0
2017-Oct-17 23:30N 50°10' W 125°22'0 0.0
2017-Oct-17 23:00N 50°10' W 125°22'0 0.0
2017-Oct-17 22:30N 50°10' W 125°22'0 0.0
2017-Oct-17 22:00N 50°10' W 125°22'0 0.0
2017-Oct-17 21:30N 50°10' W 125°22'0 0.0
2017-Oct-17 21:00N 50°10' W 125°22'0 0.0
2017-Oct-17 20:30N 50°10' W 125°22'0 0.1
2017-Oct-17 20:00N 50°10' W 125°22'0 0.1
2017-Oct-17 19:30N 50°10' W 125°22'0 0.0
2017-Oct-17 19:00N 50°10' W 125°22'0 0.0
2017-Oct-17 18:30N 50°10' W 125°22'0 0.0
2017-Oct-17 18:00N 50°10' W 125°22'0 0.0
2017-Oct-17 17:30N 50°10' W 125°22'0 0.0
2017-Oct-17 17:00N 50°10' W 125°22'0 0.0
2017-Oct-17 16:30N 50°10' W 125°22'0 0.0
2017-Oct-17 16:00N 50°10' W 125°22'0 0.0
2017-Oct-17 15:30N 50°10' W 125°22'0 0.1
2017-Oct-17 15:00N 50°10' W 125°22'0 0.1
2017-Oct-17 14:30N 50°10' W 125°22'0 0.0
2017-Oct-17 13:30N 50°10' W 125°22'0 0.0
2017-Oct-17 13:00N 50°10' W 125°22'0 0.0
2017-Oct-17 12:30N 50°10' W 125°22'0 0.0
2017-Oct-17 12:00N 50°10' W 125°22'0 0.0
2017-Oct-17 11:30N 50°10' W 125°22'0 0.0
2017-Oct-17 11:00N 50°10' W 125°22'0 0.0
2017-Oct-17 10:30N 50°10' W 125°22'0 0.0
2017-Oct-17 10:00N 50°10' W 125°22'0 0.0
2017-Oct-17 09:30N 50°10' W 125°22'0 0.0
2017-Oct-17 09:00N 50°10' W 125°22'0 0.0
2017-Oct-17 08:30N 50°10' W 125°22'0 0.0
2017-Oct-17 08:00N 50°10' W 125°22'0 0.0
2017-Oct-17 07:30N 50°10' W 125°22'3 6.2
2017-Oct-17 07:00N 50°13' W 125°23'4 9.0
2017-Oct-17 06:30N 50°17' W 125°25'6 8.0
2017-Oct-17 05:43N 50°21' W 125°32'36 7.1
2017-Oct-17 00:36N 50°30' W 126°28'1 6.9
2017-Oct-17 00:30N 50°30' W 126°29'4 7.0
2017-Oct-16 23:54N 50°30' W 126°35'3 7.1
2017-Oct-16 23:28N 50°32' W 126°40'3 6.3
2017-Oct-16 22:57N 50°35' W 126°42'5 0.5
2017-Oct-16 13:00N 50°38' W 126°36'5 8.0
2017-Oct-16 12:18N 50°38' W 126°44'3 8.9
2017-Oct-16 11:57N 50°35' W 126°42'510.3
2017-Oct-16 11:30N 50°31' W 126°38'36 9.4
2017-Oct-16 07:39N 50°22' W 125°43'6 8.3
2017-Oct-16 06:52N 50°22' W 125°33'4 7.6
2017-Oct-16 06:23N 50°20' W 125°27'3 7.7
2017-Oct-16 06:00N 50°18' W 125°25'5 9.1
2017-Oct-16 05:30N 50°14' W 125°23'4 7.6
2017-Oct-16 05:00N 50°10' W 125°22'0 0.0
2017-Oct-16 04:30N 50°10' W 125°22'0 0.0
2017-Oct-16 04:00N 50°10' W 125°22'0 0.0
2017-Oct-16 03:31N 50°10' W 125°22'0 0.0
2017-Oct-16 03:00N 50°10' W 125°22'0 0.0
2017-Oct-16 02:30N 50°10' W 125°22'0 0.0
2017-Oct-16 02:00N 50°10' W 125°22'0 0.0
2017-Oct-16 01:30N 50°10' W 125°22'0 0.0
2017-Oct-16 01:00N 50°10' W 125°22'0 0.0
2017-Oct-16 00:30N 50°10' W 125°22'0 0.0
2017-Oct-16 00:00N 50°10' W 125°22'0 0.0
2017-Oct-15 23:30N 50°10' W 125°22'0 0.0
2017-Oct-15 23:00N 50°10' W 125°22'0 0.0
2017-Oct-15 22:30N 50°10' W 125°22'0 0.0
2017-Oct-15 22:00N 50°10' W 125°22'0 0.0
2017-Oct-15 21:30N 50°10' W 125°22'0 0.0
2017-Oct-15 21:00N 50°10' W 125°22'0 0.0
2017-Oct-15 20:30N 50°10' W 125°22'0 0.0
2017-Oct-15 20:00N 50°10' W 125°22'0 0.0
2017-Oct-15 19:30N 50°10' W 125°22'0 0.0
2017-Oct-15 19:00N 50°10' W 125°22'0 0.0
2017-Oct-15 18:30N 50°10' W 125°22'0 0.0
2017-Oct-15 18:00N 50°10' W 125°22'0 0.1
2017-Oct-15 17:30N 50°10' W 125°22'0 0.1
2017-Oct-15 17:00N 50°10' W 125°22'0 0.0
2017-Oct-15 16:30N 50°10' W 125°22'0 0.0
2017-Oct-15 16:00N 50°10' W 125°22'0 0.0
2017-Oct-15 15:30N 50°10' W 125°22'0 0.0
2017-Oct-15 15:00N 50°10' W 125°22'0 0.0
2017-Oct-15 14:00N 50°10' W 125°22'0 0.1
2017-Oct-15 13:30N 50°10' W 125°22'0 0.0
2017-Oct-15 13:00N 50°10' W 125°22'0 0.0
2017-Oct-15 12:30N 50°10' W 125°22'0 0.0
2017-Oct-15 12:00N 50°10' W 125°22'0 0.0
2017-Oct-15 11:30N 50°10' W 125°22'0 0.0
2017-Oct-15 11:00N 50°10' W 125°22'0 0.0
2017-Oct-15 10:30N 50°10' W 125°22'0 0.0
2017-Oct-15 10:00N 50°10' W 125°22'3 5.5
2017-Oct-15 09:30N 50°13' W 125°23'4 8.4
2017-Oct-15 08:59N 50°17' W 125°24'7 7.8
2017-Oct-15 08:03N 50°22' W 125°33'39 8.3
2017-Oct-15 03:19N 50°30' W 126°33'3 7.1
2017-Oct-15 02:52N 50°31' W 126°38'2 6.9
2017-Oct-15 02:30N 50°32' W 126°41'4 7.3
2017-Oct-15 02:00N 50°36' W 126°43'47 2.4
2017-Oct-14 06:33N 50°22' W 125°33'1 7.7
2017-Oct-14 06:27N 50°21' W 125°32'4 8.1
2017-Oct-14 06:00N 50°20' W 125°27'4 8.6
2017-Oct-14 05:30N 50°16' W 125°24'5 9.0
2017-Oct-14 05:00N 50°12' W 125°22'4 7.7
2017-Oct-14 04:30N 50°08' W 125°21'3 6.2
2017-Oct-14 04:00N 50°06' W 125°18'4 8.1
2017-Oct-14 03:30N 50°03' W 125°14'1 1.1
2017-Oct-14 03:00N 50°02' W 125°15'0 0.1
2017-Oct-14 02:30N 50°02' W 125°15'0 0.0
2017-Oct-14 01:59N 50°02' W 125°15'0 0.1
2017-Oct-14 01:22N 50°02' W 125°15'0 0.0
2017-Oct-13 23:34N 50°02' W 125°15'0 0.6
2017-Oct-13 23:30N 50°02' W 125°15'0 0.0
2017-Oct-13 23:00N 50°02' W 125°15'0 0.1
2017-Oct-13 22:30N 50°02' W 125°15'0 0.0
2017-Oct-13 22:00N 50°02' W 125°15'0 0.1
2017-Oct-13 21:30N 50°02' W 125°15'0 0.0
2017-Oct-13 21:00N 50°02' W 125°15'0 0.0
2017-Oct-13 20:30N 50°02' W 125°15'0 0.0
2017-Oct-13 20:00N 50°02' W 125°15'0 0.1
2017-Oct-13 19:30N 50°02' W 125°15'0 0.1
2017-Oct-13 18:59N 50°02' W 125°15'0 0.0
2017-Oct-13 18:30N 50°02' W 125°15'0 0.0
2017-Oct-13 17:59N 50°02' W 125°15'0 0.1
2017-Oct-13 17:30N 50°02' W 125°15'0 0.1
2017-Oct-13 17:00N 50°02' W 125°15'0 0.0
2017-Oct-13 15:39N 50°02' W 125°15'0 0.0
2017-Oct-13 15:28N 50°02' W 125°15'0 0.0
2017-Oct-13 15:00N 50°02' W 125°15'0 0.0
2017-Oct-13 14:30N 50°02' W 125°15'0 0.0
2017-Oct-13 13:59N 50°02' W 125°15'0 0.0
2017-Oct-13 13:30N 50°02' W 125°15'0 0.0
2017-Oct-13 13:00N 50°02' W 125°15'0 0.0
2017-Oct-13 12:28N 50°02' W 125°15'0 0.0
2017-Oct-13 12:00N 50°02' W 125°15'0 0.0
2017-Oct-13 11:29N 50°02' W 125°15'0 0.0
2017-Oct-13 11:00N 50°02' W 125°15'0 0.0
2017-Oct-13 10:30N 50°02' W 125°15'0 0.0
2017-Oct-13 10:00N 50°02' W 125°15'0 0.0
2017-Oct-13 09:30N 50°02' W 125°15'0 0.0
2017-Oct-13 09:00N 50°02' W 125°15'0 0.0
2017-Oct-13 08:30N 50°02' W 125°15'0 0.0
2017-Oct-13 08:00N 50°02' W 125°15'0 0.0
2017-Oct-13 07:30N 50°02' W 125°15'0 0.0
2017-Oct-13 07:00N 50°02' W 125°15'0 0.0
2017-Oct-13 06:30N 50°02' W 125°15'0 0.0
2017-Oct-13 06:00N 50°02' W 125°15'0 0.0
2017-Oct-13 05:30N 50°02' W 125°15'0 0.1
2017-Oct-13 05:00N 50°02' W 125°15'0 0.1
2017-Oct-13 04:30N 50°02' W 125°15'0 0.0
2017-Oct-13 04:00N 50°02' W 125°15'0 0.0
2017-Oct-13 03:30N 50°02' W 125°15'0 0.0
2017-Oct-13 03:00N 50°02' W 125°15'0 0.0
2017-Oct-13 02:30N 50°02' W 125°15'0 0.0
2017-Oct-13 02:00N 50°02' W 125°15'0 0.0
2017-Oct-13 01:30N 50°02' W 125°15'0 0.0
2017-Oct-13 01:00N 50°02' W 125°15'0 0.0
2017-Oct-13 00:30N 50°02' W 125°15'0 0.0
2017-Oct-13 00:00N 50°02' W 125°15'0 0.0
2017-Oct-12 23:30N 50°02' W 125°15'0 0.0
2017-Oct-12 23:00N 50°02' W 125°15'0 0.0
2017-Oct-12 22:30N 50°02' W 125°15'0 0.0
2017-Oct-12 21:59N 50°02' W 125°15'0 0.0
2017-Oct-12 21:30N 50°02' W 125°15'0 0.0
2017-Oct-12 20:59N 50°02' W 125°15'0 0.0
2017-Oct-12 20:30N 50°02' W 125°15'0 0.0
2017-Oct-12 20:00N 50°02' W 125°15'0 0.0
2017-Oct-12 19:30N 50°02' W 125°15'0 0.0
2017-Oct-12 19:00N 50°02' W 125°15'3 6.9
2017-Oct-12 18:30N 50°05' W 125°17'510.2
2017-Oct-12 18:00N 50°09' W 125°22'1 1.2
2017-Oct-12 17:30N 50°10' W 125°22'0 0.0
2017-Oct-12 17:00N 50°10' W 125°22'0 0.1
2017-Oct-12 16:30N 50°10' W 125°22'0 0.1
2017-Oct-12 16:00N 50°10' W 125°22'0 0.1
2017-Oct-12 15:30N 50°10' W 125°22'0 0.0
2017-Oct-12 15:00N 50°10' W 125°22'0 0.1
2017-Oct-12 14:30N 50°10' W 125°22'0 0.0
2017-Oct-12 14:00N 50°10' W 125°22'0 0.0
2017-Oct-12 13:30N 50°10' W 125°22'0 0.0
2017-Oct-12 13:00N 50°10' W 125°22'0 0.0
2017-Oct-12 12:30N 50°10' W 125°22'0 0.0
2017-Oct-12 12:00N 50°10' W 125°22'0 0.0
2017-Oct-12 11:30N 50°10' W 125°22'0 0.0
2017-Oct-12 11:00N 50°10' W 125°22'0 0.0
2017-Oct-12 10:30N 50°10' W 125°22'0 0.0
2017-Oct-12 10:00N 50°10' W 125°22'0 0.0
2017-Oct-12 09:30N 50°10' W 125°22'0 0.0
2017-Oct-12 09:00N 50°10' W 125°22'2 3.4
2017-Oct-12 08:30N 50°11' W 125°22'4 7.3
2017-Oct-12 08:00N 50°15' W 125°24'4 7.3
2017-Oct-12 07:30N 50°18' W 125°25'4 6.2
2017-Oct-12 06:48N 50°21' W 125°31'34 7.9
2017-Oct-12 02:33N 50°30' W 126°22'0 9.8
2017-Oct-12 02:30N 50°30' W 126°22'4 8.7
2017-Oct-12 02:00N 50°30' W 126°29'6 8.4
2017-Oct-12 01:20N 50°31' W 126°38'3 8.3
2017-Oct-12 00:59N 50°33' W 126°41'9 5.2
2017-Oct-11 23:16N 50°38' W 126°29'2 8.8
2017-Oct-11 23:00N 50°38' W 126°25'58 2.5
2017-Oct-11 00:00N 50°02' W 125°15'0 0.0
2017-Oct-10 23:30N 50°02' W 125°15'0 0.0
2017-Oct-10 23:00N 50°02' W 125°15'0 0.0
2017-Oct-10 22:30N 50°02' W 125°15'0 0.0
2017-Oct-10 22:00N 50°02' W 125°15'0 0.0
2017-Oct-10 21:29N 50°02' W 125°15'0 0.0
2017-Oct-10 21:00N 50°02' W 125°15'0 0.0
2017-Oct-10 20:30N 50°02' W 125°15'0 0.0
2017-Oct-10 19:59N 50°02' W 125°15'0 0.0
2017-Oct-10 19:28N 50°02' W 125°15'0 0.0
2017-Oct-10 18:55N 50°02' W 125°15'0 0.0
2017-Oct-10 18:30N 50°02' W 125°15'0 0.0
2017-Oct-10 18:00N 50°02' W 125°15'0 0.0
2017-Oct-10 17:30N 50°02' W 125°15'0 0.0
2017-Oct-10 17:00N 50°02' W 125°15'0 0.0
2017-Oct-10 16:30N 50°02' W 125°15'0 0.1
2017-Oct-10 16:00N 50°02' W 125°15'0 0.0
2017-Oct-10 15:30N 50°02' W 125°15'0 0.0
2017-Oct-10 15:00N 50°02' W 125°15'0 0.0
2017-Oct-10 14:00N 50°02' W 125°15'0 0.0
2017-Oct-10 13:30N 50°02' W 125°15'0 0.0
2017-Oct-10 13:00N 50°02' W 125°15'0 0.0
2017-Oct-10 12:30N 50°02' W 125°15'0 0.0
2017-Oct-10 12:00N 50°02' W 125°15'0 0.0
2017-Oct-10 11:30N 50°02' W 125°15'0 0.0
2017-Oct-10 11:00N 50°02' W 125°15'0 0.0
2017-Oct-10 10:30N 50°02' W 125°15'0 0.0
2017-Oct-10 10:00N 50°02' W 125°15'0 0.0
2017-Oct-10 09:30N 50°02' W 125°15'0 0.0
2017-Oct-10 09:00N 50°02' W 125°15'0 0.0
2017-Oct-10 08:29N 50°02' W 125°15'0 0.0
2017-Oct-10 08:00N 50°02' W 125°15'0 0.0
2017-Oct-10 07:30N 50°02' W 125°15'0 0.0
2017-Oct-10 07:00N 50°02' W 125°15'0 0.0
2017-Oct-10 06:29N 50°02' W 125°15'0 0.0
2017-Oct-10 05:06N 50°02' W 125°15'0 0.0
2017-Oct-10 05:00N 50°02' W 125°15'0 0.0
2017-Oct-10 04:30N 50°02' W 125°15'0 0.0
2017-Oct-10 04:00N 50°02' W 125°15'0 0.0
2017-Oct-10 03:30N 50°02' W 125°15'0 0.0
2017-Oct-10 03:00N 50°02' W 125°15'0 0.0
2017-Oct-10 02:30N 50°02' W 125°15'0 0.0
2017-Oct-10 02:00N 50°02' W 125°15'0 0.0
2017-Oct-10 01:30N 50°02' W 125°15'0 0.0
2017-Oct-10 01:00N 50°02' W 125°15'0 0.0
2017-Oct-10 00:30N 50°02' W 125°15'0 0.0
2017-Oct-10 00:00N 50°02' W 125°15'0 0.0
2017-Oct-09 23:30N 50°02' W 125°15'0 0.0
2017-Oct-09 23:00N 50°02' W 125°15'0 0.0
2017-Oct-09 22:30N 50°02' W 125°15'0 0.0
2017-Oct-09 22:00N 50°02' W 125°15'0 0.0
2017-Oct-09 21:30N 50°02' W 125°15'0 0.0
2017-Oct-09 21:00N 50°02' W 125°15'0 0.0
2017-Oct-09 20:30N 50°02' W 125°15'0 0.0
2017-Oct-09 20:00N 50°02' W 125°15'0 0.0
2017-Oct-09 19:30N 50°02' W 125°15'0 0.0
2017-Oct-09 19:00N 50°02' W 125°15'0 0.0
2017-Oct-09 18:30N 50°02' W 125°15'0 0.0
2017-Oct-09 18:00N 50°02' W 125°15'0 0.0
2017-Oct-09 17:30N 50°02' W 125°15'0 0.0
2017-Oct-09 17:00N 50°02' W 125°15'0 0.0
2017-Oct-09 16:30N 50°02' W 125°15'0 0.0
2017-Oct-09 16:00N 50°02' W 125°15'0 0.0
2017-Oct-09 15:30N 50°02' W 125°15'0 0.0
2017-Oct-09 15:00N 50°02' W 125°15'0 0.0
2017-Oct-09 14:30N 50°02' W 125°15'0 0.0
2017-Oct-09 14:00N 50°02' W 125°15'0 0.0
2017-Oct-09 13:30N 50°02' W 125°15'0 0.0
2017-Oct-09 13:00N 50°02' W 125°15'0 0.0
2017-Oct-09 12:30N 50°02' W 125°15'0 0.0
2017-Oct-09 12:00N 50°02' W 125°15'0 0.0
2017-Oct-09 11:30N 50°02' W 125°15'0 0.0
2017-Oct-09 11:00N 50°02' W 125°15'0 0.0
2017-Oct-09 10:30N 50°02' W 125°15'0 0.0
2017-Oct-09 10:00N 50°02' W 125°15'0 0.0
2017-Oct-09 09:30N 50°02' W 125°15'0 0.0
2017-Oct-09 09:00N 50°02' W 125°15'0 0.0
2017-Oct-09 08:30N 50°02' W 125°15'0 0.0
2017-Oct-09 08:00N 50°02' W 125°15'0 0.0
2017-Oct-09 07:30N 50°02' W 125°15'0 0.0
2017-Oct-09 07:00N 50°02' W 125°15'0 0.0
2017-Oct-09 06:30N 50°02' W 125°15'0 0.0
2017-Oct-09 06:00N 50°02' W 125°15'0 0.0
2017-Oct-09 05:30N 50°02' W 125°15'0 0.0
2017-Oct-09 05:00N 50°02' W 125°15'0 0.0
2017-Oct-09 04:30N 50°02' W 125°15'0 0.0
2017-Oct-09 04:00N 50°02' W 125°15'0 0.0
2017-Oct-09 03:30N 50°02' W 125°15'0 0.0
2017-Oct-09 03:00N 50°02' W 125°15'0 0.0
2017-Oct-09 02:30N 50°02' W 125°15'0 0.0
2017-Oct-09 02:00N 50°02' W 125°15'0 0.0
2017-Oct-09 01:30N 50°02' W 125°15'0 0.0
2017-Oct-09 01:00N 50°02' W 125°15'0 0.0
2017-Oct-09 00:30N 50°02' W 125°15'0 0.0
2017-Oct-09 00:00N 50°02' W 125°15'0 0.0
2017-Oct-08 23:30N 50°02' W 125°15'0 0.0
2017-Oct-08 23:00N 50°02' W 125°15'0 0.0
2017-Oct-08 22:30N 50°02' W 125°15'0 0.0
2017-Oct-08 22:00N 50°02' W 125°15'0 0.0
2017-Oct-08 21:25N 50°02' W 125°15'0 0.0
2017-Oct-08 21:00N 50°02' W 125°15'3 5.5
2017-Oct-08 20:30N 50°05' W 125°16'4 8.7
2017-Oct-08 20:00N 50°08' W 125°21'2 4.2
2017-Oct-08 19:30N 50°10' W 125°22'0 0.0
2017-Oct-08 19:00N 50°10' W 125°22'0 0.0
2017-Oct-08 18:30N 50°10' W 125°22'0 0.1
2017-Oct-08 18:00N 50°10' W 125°22'0 0.1
2017-Oct-08 17:30N 50°10' W 125°22'0 0.0
2017-Oct-08 17:00N 50°10' W 125°22'0 0.1
2017-Oct-08 16:30N 50°10' W 125°22'0 0.0
2017-Oct-08 16:00N 50°10' W 125°22'0 0.1
2017-Oct-08 15:30N 50°10' W 125°22'0 0.0
2017-Oct-08 15:00N 50°10' W 125°22'0 0.0
2017-Oct-08 14:30N 50°10' W 125°22'0 0.0
2017-Oct-08 14:00N 50°10' W 125°22'0 0.0
2017-Oct-08 13:30N 50°10' W 125°22'0 0.0
2017-Oct-08 13:00N 50°10' W 125°22'0 0.0
2017-Oct-08 12:30N 50°10' W 125°22'0 0.0
2017-Oct-08 12:00N 50°10' W 125°22'0 0.0
2017-Oct-08 11:30N 50°10' W 125°22'0 0.0
2017-Oct-08 11:00N 50°10' W 125°22'0 0.0
2017-Oct-08 10:30N 50°10' W 125°22'0 0.0
2017-Oct-08 10:00N 50°10' W 125°22'0 0.0
2017-Oct-08 09:30N 50°10' W 125°22'0 0.7
2017-Oct-08 09:00N 50°10' W 125°22'4 8.6
2017-Oct-08 08:30N 50°14' W 125°23'5 8.5
2017-Oct-08 07:58N 50°18' W 125°25'5 7.2
2017-Oct-08 07:18N 50°21' W 125°32'  

Dump ship's entire track history